Allerton, Illinois
Current Conditions -  °F | °C
As of 2:53 AM on Wednesday 28 Jan 2015 (Local Time) from KCMI Reporting Station
Haze Haze  
Wind Chill: 12°   Ceiling: Unl
Heat Index: 20°   Visibility: 5mi
Dew Point: 17°   Wind: 6mph
Humidity: 89%   Direction: 110°ESE
Pressure: 30.27"   Gusts: NA
Location:  39.91°N, 87.94°W
Report Text: KCMI 280853Z AUTO 11005KT 5SM BR CLR M07/M08 A3027 RMK AO2 SLP261 I1000 I3000 T10671083 53001
Loading
Personal Weather Stations






























Interactive Weather Map New forecast layout! Learn more

10-Day Weather Forecast

Advertisements
Track Severe Weather on mobile